Time;durP1;ratioP1;P1;durP2;ratioP2;P2;SDS_P1;SDS_P2;PMS_P1;PMS_P2;Temp;Humidity;BMP_temperature;BMP_pressure;BME280_temperature;BME280_humidity;BME280_pressure;Samples;Min_cycle;Max_cycle;Signal;HPM_P1;HPM_P2
2022/01/14 00:00:37;;;;;;;25.42;13.05;;;;;;;-143.53;100.00;58366.03;2084569;28;20200;-58
2022/01/14 00:01:38;;;;;;;24.70;13.43;;;;;;;-143.53;100.00;58366.03;2084106;28;20192;-58
2022/01/14 00:02:40;;;;;;;23.20;12.63;;;;;;;-143.53;100.00;58366.03;2084285;28;20201;-58
2022/01/14 00:03:42;;;;;;;23.95;12.77;;;;;;;-143.53;100.00;58366.03;2084467;28;20211;-58
2022/01/14 00:04:44;;;;;;;27.05;13.57;;;;;;;-143.53;100.00;58366.03;2084558;28;20350;-58
2022/01/14 00:05:45;;;;;;;21.52;11.63;;;;;;;-143.53;100.00;58366.03;2083476;28;20223;-58
2022/01/14 00:06:47;;;;;;;26.60;12.98;;;;;;;-143.53;100.00;58366.03;2084192;28;20197;-58
2022/01/14 00:07:49;;;;;;;25.90;13.27;;;;;;;-143.53;100.00;58366.03;2083650;28;20199;-58
2022/01/14 00:08:50;;;;;;;27.95;13.25;;;;;;;-143.53;100.00;58366.03;2084403;28;20205;-58
2022/01/14 00:09:53;;;;;;;28.23;14.52;;;;;;;-143.53;100.00;58366.03;2083820;28;20231;-58
2022/01/14 00:10:57;;;;;;;29.25;13.23;;;;;;;-143.53;100.00;58366.03;2084454;28;20652;-58
2022/01/14 00:11:59;;;;;;;29.20;12.95;;;;;;;-143.53;100.00;58366.03;2084169;28;20204;-58
2022/01/14 00:13:09;;;;;;;26.23;13.85;;;;;;;-143.53;100.00;58366.03;2084671;28;20205;-58
2022/01/14 00:15:26;;;;;;;26.83;13.40;;;;;;;-143.53;100.00;58366.03;2084075;28;20196;-58
2022/01/14 00:16:27;;;;;;;29.17;13.68;;;;;;;-143.53;100.00;58366.03;2083037;28;20204;-58
2022/01/14 00:17:30;;;;;;;22.63;13.80;;;;;;;-143.53;100.00;58366.03;2084147;28;20207;-58
2022/01/14 00:18:31;;;;;;;33.42;13.82;;;;;;;-143.53;100.00;58366.03;2084050;28;20203;-58
2022/01/14 00:19:34;;;;;;;27.63;13.73;;;;;;;-143.53;100.00;58366.03;2087797;28;20249;-58
2022/01/14 00:20:36;;;;;;;31.60;14.18;;;;;;;-143.53;100.00;58366.03;2100193;28;20207;-58
2022/01/14 00:21:41;;;;;;;28.02;13.30;;;;;;;-143.53;100.00;58366.03;2101490;28;20196;-58
2022/01/14 00:22:42;;;;;;;29.25;13.65;;;;;;;-143.53;100.00;58366.03;2098832;28;20538;-58
2022/01/14 00:23:45;;;;;;;27.08;14.90;;;;;;;-143.53;100.00;58366.03;2100655;28;20692;-58
2022/01/14 00:32:54;;;;;;;32.03;14.00;;;;;;;-143.53;100.00;58366.03;2098861;28;20291;-58
2022/01/14 00:33:56;;;;;;;29.10;13.32;;;;;;;-143.53;100.00;58366.03;2100217;28;20198;-58
2022/01/14 00:34:57;;;;;;;28.98;14.15;;;;;;;-143.53;100.00;58366.03;2100412;28;20206;-58
2022/01/14 00:35:58;;;;;;;32.50;15.50;;;;;;;-143.53;100.00;58366.03;2101060;28;20198;-58
2022/01/14 00:37:01;;;;;;;29.95;14.00;;;;;;;-143.53;100.00;58366.03;2100912;28;20217;-58
2022/01/14 00:38:03;;;;;;;45.17;15.45;;;;;;;-143.53;100.00;58366.03;2101127;28;20206;-58
2022/01/14 00:39:07;;;;;;;31.33;14.48;;;;;;;-143.53;100.00;58366.03;2099951;28;20545;-58
2022/01/14 00:40:09;;;;;;;26.17;13.30;;;;;;;-143.53;100.00;58366.03;2097163;28;20195;-58
2022/01/14 00:41:11;;;;;;;28.75;13.93;;;;;;;-143.53;100.00;58366.03;2100363;28;20207;-58
2022/01/14 00:42:14;;;;;;;27.63;14.98;;;;;;;-143.53;100.00;58366.03;2100352;28;20205;-58
2022/01/14 00:43:16;;;;;;;33.22;13.52;;;;;;;-143.53;100.00;58366.03;2100457;28;20572;-58
2022/01/14 00:44:18;;;;;;;25.35;12.95;;;;;;;-143.53;100.00;58366.03;2099544;28;20224;-58
2022/01/14 00:45:20;;;;;;;32.85;13.55;;;;;;;-143.53;100.00;58366.03;2099430;28;20190;-58
2022/01/14 00:46:21;;;;;;;28.13;13.52;;;;;;;-143.53;100.00;58366.03;2100436;28;20198;-59
2022/01/14 00:47:23;;;;;;;27.77;13.18;;;;;;;-143.53;100.00;58366.03;2101164;28;20578;-58
2022/01/14 00:48:24;;;;;;;26.75;14.75;;;;;;;-143.53;100.00;58366.03;2100605;28;20195;-59
2022/01/14 00:49:26;;;;;;;23.25;13.65;;;;;;;-143.53;100.00;58366.03;2100379;28;20229;-58
2022/01/14 00:50:29;;;;;;;29.25;13.82;;;;;;;-143.53;100.00;58366.03;2101197;28;20684;-59
2022/01/14 00:51:30;;;;;;;26.13;13.27;;;;;;;-143.53;100.00;58366.03;2099727;28;20198;-59
2022/01/14 00:52:31;;;;;;;25.42;13.32;;;;;;;-143.53;100.00;58366.03;2100995;28;20560;-58
2022/01/14 00:53:33;;;;;;;27.30;14.38;;;;;;;-143.53;100.00;58366.03;2100839;28;20197;-59
2022/01/14 00:54:34;;;;;;;29.60;14.25;;;;;;;-143.53;100.00;58366.03;2100352;28;20237;-59
2022/01/14 00:56:05;;;;;;;27.38;14.52;;;;;;;-143.53;100.00;58366.03;2100886;28;20199;-58
2022/01/14 00:57:14;;;;;;;31.85;15.05;;;;;;;-143.53;100.00;58366.03;2099443;28;20378;-59
2022/01/14 00:59:35;;;;;;;32.80;13.60;;;;;;;-143.53;100.00;58366.03;2101243;28;20218;-59
2022/01/14 01:00:38;;;;;;;24.90;13.07;;;;;;;-143.53;100.00;58366.03;2102771;28;20820;-59
2022/01/14 01:02:01;;;;;;;26.95;13.80;;;;;;;-143.53;100.00;58366.03;2102323;28;20193;-59
2022/01/14 01:03:03;;;;;;;28.05;13.10;;;;;;;-143.53;100.00;58366.03;2101156;28;20264;-59
2022/01/14 01:04:05;;;;;;;28.40;12.95;;;;;;;-143.53;100.00;58366.03;2100851;28;20198;-59
2022/01/14 01:05:07;;;;;;;27.27;13.23;;;;;;;-143.53;100.00;58366.03;2102228;28;20195;-59
2022/01/14 01:06:10;;;;;;;29.50;14.90;;;;;;;-143.53;100.00;58366.03;2102525;28;20198;-59
2022/01/14 01:07:12;;;;;;;32.00;15.82;;;;;;;-143.53;100.00;58366.03;2101367;28;20182;-59
2022/01/14 01:08:20;;;;;;;29.67;13.82;;;;;;;-143.53;100.00;58366.03;2101905;28;20190;-59
2022/01/14 01:09:24;;;;;;;29.42;14.38;;;;;;;-143.53;100.00;58366.03;2102114;28;20222;-59
2022/01/14 01:10:26;;;;;;;26.15;14.55;;;;;;;-143.53;100.00;58366.03;2102013;28;20630;-59
2022/01/14 01:11:30;;;;;;;37.05;15.20;;;;;;;-143.53;100.00;58366.03;2101068;28;20202;-59
2022/01/14 01:13:37;;;;;;;29.48;14.07;;;;;;;-143.53;100.00;58366.03;2102685;28;20198;-59
2022/01/14 01:14:47;;;;;;;26.80;14.32;;;;;;;-143.53;100.00;58366.03;2100924;28;20261;-59
2022/01/14 01:15:49;;;;;;;26.73;14.73;;;;;;;-143.53;100.00;58366.03;2099803;28;20206;-59
2022/01/14 01:16:51;;;;;;;31.23;15.20;;;;;;;-143.53;100.00;58366.03;2102099;28;20217;-59
2022/01/14 01:17:53;;;;;;;25.75;13.40;;;;;;;-143.53;100.00;58366.03;2102961;28;20198;-59
2022/01/14 01:18:55;;;;;;;25.95;13.05;;;;;;;-143.53;100.00;58366.03;2101602;28;20195;-60
2022/01/14 01:19:56;;;;;;;29.55;13.02;;;;;;;-143.53;100.00;58366.03;2100396;28;20231;-59
2022/01/14 01:20:59;;;;;;;24.42;12.82;;;;;;;-143.53;100.00;58366.03;2101815;28;20209;-59
2022/01/14 01:22:01;;;;;;;24.92;12.98;;;;;;;-143.53;100.00;58366.03;2102378;28;20245;-60
2022/01/14 01:23:04;;;;;;;26.27;12.77;;;;;;;-143.53;100.00;58366.03;2102215;28;20523;-59
2022/01/14 01:24:12;;;;;;;28.73;13.50;;;;;;;-143.53;100.00;58366.03;2101630;28;20222;-59
2022/01/14 01:25:16;;;;;;;29.05;13.93;;;;;;;-143.53;100.00;58366.03;2102624;28;20199;-59
2022/01/14 01:26:27;;;;;;;26.92;13.98;;;;;;;-143.53;100.00;58366.03;2100438;28;20196;-60
2022/01/14 01:27:30;;;;;;;22.33;11.88;;;;;;;-143.53;100.00;58366.03;2101994;28;20645;-60
2022/01/14 01:28:39;;;;;;;33.28;13.65;;;;;;;-143.53;100.00;58366.03;2102492;28;20208;-60
2022/01/14 01:30:51;;;;;;;32.22;13.55;;;;;;;-143.53;100.00;58366.03;2100936;28;20201;-60
2022/01/14 01:31:53;;;;;;;25.65;12.40;;;;;;;-143.53;100.00;58366.03;2101133;28;20222;-59
2022/01/14 01:32:56;;;;;;;33.03;12.38;;;;;;;-143.53;100.00;58366.03;2102560;28;20202;-60
2022/01/14 01:33:58;;;;;;;25.40;14.55;;;;;;;-143.53;100.00;58366.03;2101663;28;20580;-60
2022/01/14 01:34:59;;;;;;;25.42;13.70;;;;;;;-143.53;100.00;58366.03;2101527;28;20209;-60
2022/01/14 01:36:01;;;;;;;25.30;14.35;;;;;;;-143.53;100.00;58366.03;2088804;28;20203;-60
2022/01/14 01:37:03;;;;;;;27.67;13.82;;;;;;;-143.53;100.00;58366.03;2089106;28;20695;-60
2022/01/14 01:38:05;;;;;;;27.40;13.30;;;;;;;-143.53;100.00;58366.03;2101363;28;20206;-60
2022/01/14 01:39:10;;;;;;;25.35;13.45;;;;;;;-143.53;100.00;58366.03;2100301;28;20210;-60
2022/01/14 01:40:14;;;;;;;23.48;13.23;;;;;;;-143.53;100.00;58366.03;2101680;28;20199;-60
2022/01/14 01:41:17;;;;;;;29.40;12.70;;;;;;;-143.53;100.00;58366.03;2100541;28;20194;-60
2022/01/14 01:42:26;;;;;;;30.50;14.60;;;;;;;-143.53;100.00;58366.03;2100671;28;20197;-60
2022/01/14 01:43:29;;;;;;;26.52;13.82;;;;;;;-143.53;100.00;58366.03;2101761;28;20196;-60
2022/01/14 01:44:32;;;;;;;28.75;14.25;;;;;;;-143.53;100.00;58366.03;2101583;28;20687;-60
2022/01/14 01:45:34;;;;;;;23.67;12.48;;;;;;;-143.53;100.00;58366.03;2101999;28;20195;-60
2022/01/14 01:46:40;;;;;;;31.48;12.90;;;;;;;-143.53;100.00;58366.03;2101938;28;20543;-60
2022/01/14 01:47:44;;;;;;;26.70;13.00;;;;;;;-143.53;100.00;58366.03;2101898;28;20662;-60
2022/01/14 01:48:52;;;;;;;27.30;14.10;;;;;;;-143.53;100.00;58366.03;2101348;28;20202;-60
2022/01/14 01:49:54;;;;;;;25.90;12.32;;;;;;;-143.53;100.00;58366.03;2100681;28;20231;-60
2022/01/14 01:50:57;;;;;;;30.75;14.10;;;;;;;-143.53;100.00;58366.03;2101976;28;20200;-60
2022/01/14 01:51:59;;;;;;;32.65;13.98;;;;;;;-143.53;100.00;58366.03;2101281;28;20592;-60
2022/01/14 01:53:01;;;;;;;25.80;13.23;;;;;;;-143.53;100.00;58366.03;2101888;28;20817;-60
2022/01/14 01:54:03;;;;;;;28.42;13.43;;;;;;;-143.53;100.00;58366.03;2100955;28;20195;-60
2022/01/14 01:55:06;;;;;;;24.25;12.98;;;;;;;-143.53;100.00;58366.03;2101299;28;20198;-60
2022/01/14 01:56:07;;;;;;;27.67;13.48;;;;;;;-143.53;100.00;58366.03;2101861;28;20201;-60
2022/01/14 01:57:09;;;;;;;25.95;13.85;;;;;;;-143.53;100.00;58366.03;2101395;28;20720;-60
2022/01/14 01:58:10;;;;;;;29.13;13.88;;;;;;;-143.53;100.00;58366.03;2101230;28;20206;-60
2022/01/14 01:59:12;;;;;;;31.17;13.68;;;;;;;-143.53;100.00;58366.03;2102028;28;20202;-60
2022/01/14 02:00:17;;;;;;;31.23;14.75;;;;;;;-143.53;100.00;58366.03;2101357;28;20259;-60
2022/01/14 02:01:19;;;;;;;26.08;13.35;;;;;;;-143.53;100.00;58366.03;2101163;28;20661;-60
2022/01/14 02:02:20;;;;;;;24.48;13.18;;;;;;;-143.53;100.00;58366.03;2101739;28;20654;-61
2022/01/14 02:03:22;;;;;;;30.42;14.25;;;;;;;-143.53;100.00;58366.03;2101163;28;20205;-60
2022/01/14 02:04:24;;;;;;;22.02;12.80;;;;;;;-143.53;100.00;58366.03;2100567;28;21031;-60
2022/01/14 02:05:25;;;;;;;24.90;13.20;;;;;;;-143.53;100.00;58366.03;2101358;28;20198;-60
2022/01/14 02:06:27;;;;;;;25.05;13.07;;;;;;;-143.53;100.00;58366.03;2101671;28;20199;-60
2022/01/14 02:07:31;;;;;;;26.38;13.23;;;;;;;-143.53;100.00;58366.03;2101522;28;20200;-60
2022/01/14 02:08:33;;;;;;;25.92;13.65;;;;;;;-143.53;100.00;58366.03;2101583;28;20654;-60
2022/01/14 02:09:34;;;;;;;30.25;15.23;;;;;;;-143.53;100.00;58366.03;2101032;28;20876;-60
2022/01/14 02:10:38;;;;;;;26.73;13.00;;;;;;;-143.53;100.00;58366.03;2101465;28;20204;-60
2022/01/14 02:11:40;;;;;;;29.88;13.52;;;;;;;-143.53;100.00;58366.03;2102343;28;20201;-61
2022/01/14 02:12:51;;;;;;;28.73;13.65;;;;;;;-143.53;100.00;58366.03;2098499;28;20191;-60
2022/01/14 02:13:55;;;;;;;31.10;14.02;;;;;;;-143.53;100.00;58366.03;2102068;28;20210;-60
2022/01/14 02:15:10;;;;;;;23.48;11.98;;;;;;;-143.53;100.00;58366.03;2092355;28;20231;-61
2022/01/14 02:16:18;;;;;;;24.58;11.88;;;;;;;-143.53;100.00;58366.03;2092780;28;20209;-60
2022/01/14 02:17:34;;;;;;;28.70;12.10;;;;;;;-143.53;100.00;58366.03;2092239;28;20688;-60
2022/01/14 02:22:52;;;;;;;29.02;13.52;;;;;;;-143.53;100.00;58366.03;2093051;28;20207;-60
2022/01/14 02:24:09;;;;;;;27.33;11.68;;;;;;;-143.53;100.00;58366.03;2092936;28;20319;-61
2022/01/14 02:25:12;;;;;;;29.40;13.30;;;;;;;-143.53;100.00;58366.03;2091498;28;20229;-60
2022/01/14 02:26:17;;;;;;;30.20;13.05;;;;;;;-143.53;100.00;58366.03;2092794;28;20211;-61
2022/01/14 02:27:18;;;;;;;23.20;12.98;;;;;;;-143.53;100.00;58366.03;2090903;28;20198;-60
2022/01/14 02:28:20;;;;;;;27.25;14.23;;;;;;;-143.53;100.00;58366.03;2093126;28;20214;-61
2022/01/14 02:29:22;;;;;;;29.55;14.27;;;;;;;-143.53;100.00;58366.03;2093286;28;20221;-61
2022/01/14 02:30:25;;;;;;;30.23;13.82;;;;;;;-143.53;100.00;58366.03;2092500;28;20330;-60
2022/01/14 02:31:27;;;;;;;32.40;14.50;;;;;;;-143.53;100.00;58366.03;2093117;28;20200;-61
2022/01/14 02:32:28;;;;;;;32.38;14.07;;;;;;;-143.53;100.00;58366.03;2093591;28;20688;-60
2022/01/14 02:33:30;;;;;;;30.38;13.98;;;;;;;-143.53;100.00;58366.03;2093333;28;20198;-60
2022/01/14 02:34:31;;;;;;;34.75;15.60;;;;;;;-143.53;100.00;58366.03;2092237;28;20755;-61
2022/01/14 02:35:33;;;;;;;28.13;13.98;;;;;;;-143.53;100.00;58366.03;2093164;28;20203;-61
2022/01/14 02:36:35;;;;;;;24.90;12.75;;;;;;;-143.53;100.00;58366.03;2084189;28;20207;-60
2022/01/14 02:37:36;;;;;;;30.13;15.23;;;;;;;-143.53;100.00;58366.03;2084092;28;20721;-61
2022/01/14 02:38:38;;;;;;;32.95;14.48;;;;;;;-143.53;100.00;58366.03;2092995;28;20277;-60
2022/01/14 02:39:39;;;;;;;32.15;13.48;;;;;;;-143.53;100.00;58366.03;2092489;28;20257;-60
2022/01/14 02:40:45;;;;;;;39.22;15.13;;;;;;;-143.53;100.00;58366.03;2091213;28;20196;-60
2022/01/14 02:41:49;;;;;;;32.30;14.93;;;;;;;-143.53;100.00;58366.03;2093775;28;20200;-60
2022/01/14 02:42:51;;;;;;;35.40;16.27;;;;;;;-143.53;100.00;58366.03;2093161;28;20207;-61
2022/01/14 02:43:53;;;;;;;26.60;14.77;;;;;;;-143.53;100.00;58366.03;2092757;28;20202;-60
2022/01/14 02:45:01;;;;;;;37.70;16.95;;;;;;;-143.53;100.00;58366.03;2092944;28;20213;-60
2022/01/14 02:46:05;;;;;;;31.05;14.05;;;;;;;-143.53;100.00;58366.03;2092194;28;20206;-60
2022/01/14 02:47:07;;;;;;;26.55;13.45;;;;;;;-143.53;100.00;58366.03;2092665;28;20191;-61
2022/01/14 02:48:08;;;;;;;23.73;12.30;;;;;;;-143.53;100.00;58366.03;2092505;28;20195;-61
2022/01/14 02:49:10;;;;;;;28.48;13.98;;;;;;;-143.53;100.00;58366.03;2092342;28;20201;-60
2022/01/14 02:50:20;;;;;;;36.05;16.20;;;;;;;-143.53;100.00;58366.03;2092574;28;20222;-60
2022/01/14 02:51:21;;;;;;;28.05;14.80;;;;;;;-143.53;100.00;58366.03;2084012;28;20230;-60
2022/01/14 02:52:40;;;;;;;28.83;14.40;;;;;;;-143.53;100.00;58366.03;2084373;28;20204;-60
2022/01/14 02:53:45;;;;;;;27.85;13.48;;;;;;;-143.53;100.00;58366.03;2092329;28;20775;-60
2022/01/14 02:55:13;;;;;;;28.63;13.85;;;;;;;-143.53;100.00;58366.03;2092485;28;20701;-60
2022/01/14 02:56:20;;;;;;;28.35;12.95;;;;;;;-143.53;100.00;58366.03;2092840;28;20197;-60
2022/01/14 02:57:22;;;;;;;31.58;13.35;;;;;;;-143.53;100.00;58366.03;2092807;28;20373;-60
2022/01/14 02:58:25;;;;;;;28.10;14.02;;;;;;;-143.53;100.00;58366.03;2092929;28;20695;-61
2022/01/14 02:59:29;;;;;;;33.50;14.95;;;;;;;-143.53;100.00;58366.03;2092692;28;20222;-60
2022/01/14 03:00:31;;;;;;;27.60;12.60;;;;;;;-143.53;100.00;58366.03;2092397;28;20224;-60
2022/01/14 03:01:33;;;;;;;31.25;15.45;;;;;;;-143.53;100.00;58366.03;2093593;28;20199;-60
2022/01/14 03:02:35;;;;;;;30.67;15.05;;;;;;;-143.53;100.00;58366.03;2093065;28;20201;-60
2022/01/14 03:03:39;;;;;;;27.58;13.52;;;;;;;-143.53;100.00;58366.03;2092722;28;20202;-60
2022/01/14 03:04:41;;;;;;;31.23;14.55;;;;;;;-143.53;100.00;58366.03;2092154;28;20233;-60
2022/01/14 03:05:43;;;;;;;41.70;13.98;;;;;;;-143.53;100.00;58366.03;2092959;28;20206;-60
2022/01/14 03:06:46;;;;;;;27.67;13.50;;;;;;;-143.53;100.00;58366.03;2093459;28;20202;-60
2022/01/14 03:07:48;;;;;;;24.95;13.57;;;;;;;-143.53;100.00;58366.03;2091016;28;20486;-60
2022/01/14 03:08:49;;;;;;;27.33;13.98;;;;;;;-143.53;100.00;58366.03;2093017;28;21069;-60
2022/01/14 03:09:51;;;;;;;28.30;14.10;;;;;;;-143.53;100.00;58366.03;2092309;28;20217;-61
2022/01/14 03:10:59;;;;;;;24.27;12.65;;;;;;;-143.53;100.00;58366.03;2093270;28;20201;-60
2022/01/14 03:12:01;;;;;;;27.42;13.40;;;;;;;-143.53;100.00;58366.03;2091477;28;20195;-60
2022/01/14 03:13:03;;;;;;;27.85;14.73;;;;;;;-143.53;100.00;58366.03;2093428;28;20206;-60
2022/01/14 03:14:05;;;;;;;28.02;14.27;;;;;;;-143.53;100.00;58366.03;2092044;28;20638;-61
2022/01/14 03:15:07;;;;;;;26.75;12.95;;;;;;;-143.53;100.00;58366.03;2090257;28;20209;-60
2022/01/14 03:16:09;;;;;;;24.52;12.95;;;;;;;-143.53;100.00;58366.03;2093050;28;20198;-60
2022/01/14 03:17:11;;;;;;;33.75;15.55;;;;;;;-143.53;100.00;58366.03;2092854;28;20196;-61
2022/01/14 03:18:17;;;;;;;30.10;13.90;;;;;;;-143.53;100.00;58366.03;2092610;28;20697;-60
2022/01/14 03:19:22;;;;;;;28.38;13.63;;;;;;;-143.53;100.00;58366.03;2092198;28;20233;-60
2022/01/14 03:21:43;;;;;;;22.55;12.05;;;;;;;-143.53;100.00;58366.03;2092521;28;20217;-60
2022/01/14 03:22:52;;;;;;;25.85;12.98;;;;;;;-143.53;100.00;58366.03;2092381;28;20648;-60
2022/01/14 03:24:17;;;;;;;24.48;13.25;;;;;;;-143.53;100.00;58366.03;2091682;28;20203;-60
2022/01/14 03:25:48;;;;;;;25.58;13.43;;;;;;;-143.53;100.00;58366.03;2092998;28;20846;-60
2022/01/14 03:26:51;;;;;;;29.42;13.05;;;;;;;-143.53;100.00;58366.03;2093263;28;20202;-60
2022/01/14 03:27:54;;;;;;;26.48;13.35;;;;;;;-143.53;100.00;58366.03;2093210;28;20233;-60
2022/01/14 03:28:55;;;;;;;20.85;11.05;;;;;;;-143.53;100.00;58366.03;2092444;28;20231;-60
2022/01/14 03:29:56;;;;;;;28.20;13.10;;;;;;;-143.53;100.00;58366.03;2091868;28;20233;-60
2022/01/14 03:30:58;;;;;;;26.75;13.63;;;;;;;-143.53;100.00;58366.03;2093349;28;20542;-60
2022/01/14 03:32:00;;;;;;;23.58;13.40;;;;;;;-143.53;100.00;58366.03;2092899;28;20194;-60
2022/01/14 03:33:01;;;;;;;24.85;12.80;;;;;;;-143.53;100.00;58366.03;2093031;28;20884;-60
2022/01/14 03:34:02;;;;;;;23.25;12.40;;;;;;;-143.53;100.00;58366.03;2092896;28;20217;-60
2022/01/14 03:35:04;;;;;;;27.52;13.68;;;;;;;-143.53;100.00;58366.03;2092475;28;20198;-60
2022/01/14 03:36:07;;;;;;;27.13;12.85;;;;;;;-143.53;100.00;58366.03;2091494;28;20199;-60
2022/01/14 03:37:08;;;;;;;23.92;13.25;;;;;;;-143.53;100.00;58366.03;2093452;28;20194;-60
2022/01/14 03:38:10;;;;;;;26.63;13.07;;;;;;;-143.53;100.00;58366.03;2093346;28;20556;-60
2022/01/14 03:39:12;;;;;;;30.30;13.95;;;;;;;-143.53;100.00;58366.03;2091981;28;20198;-60
2022/01/14 03:40:13;;;;;;;26.77;13.73;;;;;;;-143.53;100.00;58366.03;2092641;28;20211;-60
2022/01/14 03:41:15;;;;;;;22.23;12.63;;;;;;;-143.53;100.00;58366.03;2092680;28;20189;-60
2022/01/14 03:42:16;;;;;;;26.92;13.15;;;;;;;-143.53;100.00;58366.03;2092825;28;20637;-60
2022/01/14 03:43:18;;;;;;;22.58;12.88;;;;;;;-143.53;100.00;58366.03;2092967;28;20202;-60
2022/01/14 03:44:21;;;;;;;24.40;13.07;;;;;;;-143.53;100.00;58366.03;2091247;28;20233;-60
2022/01/14 03:45:23;;;;;;;27.23;14.50;;;;;;;-143.53;100.00;58366.03;2092968;28;20195;-60
2022/01/14 03:46:24;;;;;;;28.27;13.00;;;;;;;-143.53;100.00;58366.03;2093332;28;20330;-60
2022/01/14 03:47:25;;;;;;;25.40;13.07;;;;;;;-143.53;100.00;58366.03;2092937;28;20197;-60
2022/01/14 03:48:27;;;;;;;24.85;12.30;;;;;;;-143.53;100.00;58366.03;2092513;28;20215;-60
2022/01/14 03:49:28;;;;;;;24.98;12.00;;;;;;;-143.53;100.00;58366.03;2091706;28;20224;-60
2022/01/14 03:50:30;;;;;;;28.05;12.73;;;;;;;-143.53;100.00;58366.03;2092238;28;20592;-60
2022/01/14 03:51:32;;;;;;;30.10;14.07;;;;;;;-143.53;100.00;58366.03;2094864;28;20197;-60
2022/01/14 03:52:33;;;;;;;26.30;13.25;;;;;;;-143.53;100.00;58366.03;2091700;28;20199;-60
2022/01/14 03:53:35;;;;;;;25.60;12.75;;;;;;;-143.53;100.00;58366.03;2092501;28;20949;-60
2022/01/14 03:54:36;;;;;;;23.52;12.43;;;;;;;-143.53;100.00;58366.03;2092256;28;20237;-59
2022/01/14 03:55:42;;;;;;;22.98;12.70;;;;;;;-143.53;100.00;58366.03;2092871;28;20203;-60
2022/01/14 03:57:03;;;;;;;21.75;11.73;;;;;;;-143.53;100.00;58366.03;2092767;28;20227;-60
2022/01/14 03:58:06;;;;;;;25.77;13.23;;;;;;;-143.53;100.00;58366.03;2092644;28;20195;-60
2022/01/14 03:59:07;;;;;;;26.52;13.10;;;;;;;-143.53;100.00;58366.03;2092098;28;20202;-60
2022/01/14 04:00:10;;;;;;;30.45;13.52;;;;;;;-143.53;100.00;58366.03;2092926;28;20204;-60
2022/01/14 04:01:13;;;;;;;26.33;13.80;;;;;;;-143.53;100.00;58366.03;2092578;28;20199;-60
2022/01/14 04:02:15;;;;;;;26.55;14.00;;;;;;;-143.53;100.00;58366.03;2093177;28;20246;-60
2022/01/14 04:03:16;;;;;;;33.80;14.98;;;;;;;-143.53;100.00;58366.03;2092410;28;20194;-60
2022/01/14 04:04:18;;;;;;;30.83;13.05;;;;;;;-143.53;100.00;58366.03;2086330;28;20274;-60
2022/01/14 04:05:19;;;;;;;26.45;14.07;;;;;;;-143.53;100.00;58366.03;2092005;28;20204;-60
2022/01/14 04:06:21;;;;;;;24.92;12.90;;;;;;;-143.53;100.00;58366.03;2092646;28;20577;-60
2022/01/14 04:07:22;;;;;;;27.23;14.23;;;;;;;-143.53;100.00;58366.03;2092604;28;20201;-60
2022/01/14 04:08:24;;;;;;;24.80;12.23;;;;;;;-143.53;100.00;58366.03;2092418;28;20201;-60
2022/01/14 04:09:25;;;;;;;26.50;13.05;;;;;;;-143.53;100.00;58366.03;2091663;28;20249;-60
2022/01/14 04:10:27;;;;;;;20.98;11.63;;;;;;;-143.53;100.00;58366.03;2092602;28;20202;-60
2022/01/14 04:11:30;;;;;;;22.58;13.10;;;;;;;-143.53;100.00;58366.03;2092311;28;20232;-60
2022/01/14 04:12:44;;;;;;;26.23;12.73;;;;;;;-143.53;100.00;58366.03;2092848;28;20197;-60
2022/01/14 04:15:49;;;;;;;24.17;12.70;;;;;;;-143.53;100.00;58366.03;2092392;28;20193;-60
2022/01/14 04:16:51;;;;;;;22.50;12.88;;;;;;;-143.53;100.00;58366.03;2090304;28;20525;-60
2022/01/14 04:17:53;;;;;;;22.98;12.25;;;;;;;-143.53;100.00;58366.03;2092193;28;20194;-60
2022/01/14 04:18:54;;;;;;;24.50;11.93;;;;;;;-143.53;100.00;58366.03;2092521;28;20229;-60
2022/01/14 04:19:56;;;;;;;25.95;12.77;;;;;;;-143.53;100.00;58366.03;2092789;28;20241;-60
2022/01/14 04:20:57;;;;;;;22.88;12.18;;;;;;;-143.53;100.00;58366.03;2092593;28;20202;-60
2022/01/14 04:21:59;;;;;;;23.13;11.90;;;;;;;-143.53;100.00;58366.03;2092643;28;20202;-60
2022/01/14 04:23:01;;;;;;;23.35;12.88;;;;;;;-143.53;100.00;58366.03;2092996;28;20198;-59
2022/01/14 04:24:02;;;;;;;25.17;12.07;;;;;;;-143.53;100.00;58366.03;2092070;28;20536;-60
2022/01/14 04:25:04;;;;;;;24.80;13.00;;;;;;;-143.53;100.00;58366.03;2092819;28;20596;-60
2022/01/14 04:26:06;;;;;;;27.80;12.57;;;;;;;-143.53;100.00;58366.03;2092696;28;20209;-60
2022/01/14 04:27:07;;;;;;;22.98;12.75;;;;;;;-143.53;100.00;58366.03;2092553;28;20200;-59
2022/01/14 04:28:10;;;;;;;25.08;12.27;;;;;;;-143.53;100.00;58366.03;2091930;28;20199;-59
2022/01/14 04:29:11;;;;;;;26.15;12.50;;;;;;;-143.53;100.00;58366.03;2092630;28;20284;-59
2022/01/14 04:30:13;;;;;;;21.60;12.23;;;;;;;-143.53;100.00;58366.03;2092945;28;20194;-59
2022/01/14 04:31:14;;;;;;;27.42;13.23;;;;;;;-143.53;100.00;58366.03;2093382;28;20203;-60
2022/01/14 04:32:16;;;;;;;24.63;12.20;;;;;;;-143.53;100.00;58366.03;2094542;28;20220;-59
2022/01/14 04:33:17;;;;;;;21.48;11.88;;;;;;;-143.53;100.00;58366.03;2093527;28;20198;-59
2022/01/14 04:34:19;;;;;;;21.80;10.65;;;;;;;-143.53;100.00;58366.03;2093780;28;20240;-59
2022/01/14 04:35:21;;;;;;;22.80;10.85;;;;;;;-143.53;100.00;58366.03;2094063;28;20628;-59
2022/01/14 04:36:22;;;;;;;24.90;12.43;;;;;;;-143.53;100.00;58366.03;2094278;28;20202;-60
2022/01/14 04:37:23;;;;;;;25.75;13.20;;;;;;;-143.53;100.00;58366.03;2094315;28;20204;-60
2022/01/14 04:38:26;;;;;;;22.27;12.15;;;;;;;-143.53;100.00;58366.03;2093290;28;20203;-59
2022/01/14 04:39:28;;;;;;;21.35;11.10;;;;;;;-143.53;100.00;58366.03;2094207;28;20221;-59
2022/01/14 04:40:30;;;;;;;22.77;11.82;;;;;;;-143.53;100.00;58366.03;2094333;28;20197;-60
2022/01/14 04:41:31;;;;;;;22.00;10.98;;;;;;;-143.53;100.00;58366.03;2093688;28;20642;-59
2022/01/14 04:42:33;;;;;;;23.20;12.05;;;;;;;-143.53;100.00;58366.03;2094559;28;20198;-60
2022/01/14 04:43:35;;;;;;;25.60;10.80;;;;;;;-143.53;100.00;58366.03;2094085;28;20201;-60
2022/01/14 04:44:37;;;;;;;23.85;11.35;;;;;;;-143.53;100.00;58366.03;2093484;28;20306;-59
2022/01/14 04:47:44;;;;;;;25.63;13.02;;;;;;;-143.53;100.00;58366.03;2095055;28;20195;-59
2022/01/14 04:48:46;;;;;;;23.90;12.18;;;;;;;-143.53;100.00;58366.03;2094276;28;20651;-60
2022/01/14 04:49:47;;;;;;;24.63;11.20;;;;;;;-143.53;100.00;58366.03;2092759;28;20842;-59
2022/01/14 04:50:53;;;;;;;24.13;11.15;;;;;;;-143.53;100.00;58366.03;2093757;28;20544;-60
2022/01/14 04:51:56;;;;;;;24.02;11.25;;;;;;;-143.53;100.00;58366.03;2094416;28;20228;-59
2022/01/14 04:52:58;;;;;;;24.23;11.15;;;;;;;-143.53;100.00;58366.03;2093593;28;20196;-60
2022/01/14 04:54:02;;;;;;;20.90;10.77;;;;;;;-143.53;100.00;58366.03;2092265;28;20516;-59
2022/01/14 04:55:04;;;;;;;21.33;10.25;;;;;;;-143.53;100.00;58366.03;2093644;28;20191;-60
2022/01/14 04:56:06;;;;;;;25.90;12.35;;;;;;;-143.53;100.00;58366.03;2093736;28;20206;-59
2022/01/14 04:57:07;;;;;;;27.10;10.65;;;;;;;-143.53;100.00;58366.03;2093241;28;20707;-60
2022/01/14 04:58:09;;;;;;;18.58;9.73;;;;;;;-143.53;100.00;58366.03;2093932;28;20212;-59
2022/01/14 04:59:10;;;;;;;23.85;10.23;;;;;;;-143.53;100.00;58366.03;2093008;28;20212;-59
2022/01/14 05:00:15;;;;;;;18.88;10.05;;;;;;;-143.53;100.00;58366.03;2092994;28;20545;-59
2022/01/14 05:01:16;;;;;;;23.35;10.70;;;;;;;-143.53;100.00;58366.03;2093729;28;20626;-59
2022/01/14 05:02:18;;;;;;;21.02;10.77;;;;;;;-143.53;100.00;58366.03;2093977;28;20224;-59
2022/01/14 05:03:20;;;;;;;24.58;12.00;;;;;;;-143.53;100.00;58366.03;2092773;28;20194;-59
2022/01/14 05:04:21;;;;;;;26.50;11.48;;;;;;;-143.53;100.00;58366.03;2093560;28;20307;-59